createdAt,value
2023-01-15T00:02:24.929Z,99181.88
2023-01-15T00:05:10.718Z,99185.19
2023-01-15T00:07:56.042Z,99204.06
2023-01-15T00:10:41.425Z,99193.47
2023-01-15T00:13:28.854Z,99204.66
2023-01-15T00:16:17.791Z,99205.25
2023-01-15T00:19:04.610Z,99209.34
2023-01-15T00:21:50.355Z,99218.13
2023-01-15T00:24:54.031Z,99221.38
2023-01-15T00:27:39.675Z,99231.63
2023-01-15T00:30:25.119Z,99240.84
2023-01-15T00:33:10.396Z,99226.41
2023-01-15T00:35:57.144Z,99228.75
2023-01-15T00:38:42.846Z,99231.72
2023-01-15T00:41:28.513Z,99245.41
2023-01-15T00:44:14.279Z,99240.31
2023-01-15T00:46:59.763Z,99247.25
2023-01-15T00:49:45.307Z,99254.34
2023-01-15T00:52:31.267Z,99234.09
2023-01-15T00:55:19.375Z,99236.53
2023-01-15T00:58:04.980Z,99244.72
2023-01-15T01:00:55.515Z,99232.78
2023-01-15T01:03:41.124Z,99241.91
2023-01-15T01:06:27.130Z,99254.41
2023-01-15T01:09:16.105Z,99236.13
2023-01-15T01:12:01.933Z,99233.88
2023-01-15T01:14:47.413Z,99234.63
2023-01-15T01:17:33.750Z,99229.00
2023-01-15T01:20:19.496Z,99216.44
2023-01-15T01:23:04.901Z,99241.88
2023-01-15T01:25:50.664Z,99245.50
2023-01-15T01:28:36.207Z,99237.03
2023-01-15T01:31:22.395Z,99247.03
2023-01-15T01:34:09.976Z,99250.56
2023-01-15T01:36:55.356Z,99258.56
2023-01-15T01:39:41.087Z,99234.91
2023-01-15T01:42:26.478Z,99228.31
2023-01-15T01:45:33.054Z,99243.00
2023-01-15T01:48:23.889Z,99251.34
2023-01-15T01:51:09.335Z,99242.34
2023-01-15T01:53:56.611Z,99247.69
2023-01-15T01:56:42.066Z,99247.44
2023-01-15T01:59:27.656Z,99236.72
2023-01-15T02:02:14.241Z,99248.50
2023-01-15T02:04:59.898Z,99237.78
2023-01-15T02:07:45.479Z,99234.41
2023-01-15T02:10:30.985Z,99233.25
2023-01-15T02:13:39.053Z,99241.06
2023-01-15T02:16:35.394Z,99247.09
2023-01-15T02:19:45.371Z,99258.28
2023-01-15T02:22:59.307Z,99274.59
2023-01-15T02:26:11.713Z,99254.31
2023-01-15T02:28:59.307Z,99244.25
2023-01-15T02:31:51.012Z,99242.19
2023-01-15T02:34:39.326Z,99229.72
2023-01-15T02:37:30.528Z,99241.06
2023-01-15T02:40:22.480Z,99259.22
2023-01-15T02:43:08.884Z,99259.78
2023-01-15T02:45:57.254Z,99261.91
2023-01-15T02:48:46.222Z,99277.72
2023-01-15T02:51:39.923Z,99283.31
2023-01-15T02:54:30.535Z,99266.28
2023-01-15T02:57:18.516Z,99248.03
2023-01-15T03:00:07.823Z,99251.31
2023-01-15T03:03:06.307Z,99246.09
2023-01-15T03:05:56.088Z,99245.69
2023-01-15T03:08:41.551Z,99284.53
2023-01-15T03:11:27.172Z,99294.34
2023-01-15T03:14:15.087Z,99278.66
2023-01-15T03:17:12.037Z,99276.69
2023-01-15T03:20:05.828Z,99273.25
2023-01-15T03:22:56.953Z,99288.47
2023-01-15T03:25:49.415Z,99264.13
2023-01-15T03:28:38.124Z,99261.50
2023-01-15T03:31:23.680Z,99254.00
2023-01-15T03:34:09.465Z,99249.53
2023-01-15T03:36:54.718Z,99251.25
2023-01-15T03:39:41.390Z,99253.78
2023-01-15T03:42:45.017Z,99250.75
2023-01-15T03:45:37.938Z,99233.00
2023-01-15T03:48:42.819Z,99259.66
2023-01-15T03:51:42.677Z,99253.34
2023-01-15T03:54:43.350Z,99254.75
2023-01-15T03:57:37.826Z,99239.81
2023-01-15T04:00:32.220Z,99253.16
2023-01-15T04:03:20.253Z,99263.19
2023-01-15T04:06:06.670Z,99273.78
2023-01-15T04:08:52.510Z,99247.38
2023-01-15T04:11:38.067Z,99246.88
2023-01-15T04:14:23.460Z,99239.91
2023-01-15T04:17:09.000Z,99236.56
2023-01-15T04:19:54.357Z,99233.44
2023-01-15T04:22:39.572Z,99238.84
2023-01-15T04:25:25.317Z,99237.50
2023-01-15T04:28:10.748Z,99234.56
2023-01-15T04:30:57.574Z,99230.53
2023-01-15T04:33:43.101Z,99222.88
2023-01-15T04:36:29.158Z,99240.53
2023-01-15T04:39:14.758Z,99229.88
2023-01-15T04:42:18.760Z,99237.66
2023-01-15T04:45:04.523Z,99234.69
2023-01-15T04:47:49.873Z,99232.84
2023-01-15T04:50:35.343Z,99231.31
2023-01-15T04:53:20.913Z,99231.06
2023-01-15T04:56:06.867Z,99241.47
2023-01-15T04:58:52.317Z,99250.69
2023-01-15T05:01:38.179Z,99256.84
2023-01-15T05:04:24.072Z,99255.22
2023-01-15T05:07:10.009Z,99239.41
2023-01-15T05:09:55.598Z,99236.81
2023-01-15T05:12:40.862Z,99230.03
2023-01-15T05:15:26.442Z,99230.63
2023-01-15T05:18:15.012Z,99217.50
2023-01-15T05:21:00.348Z,99224.91
2023-01-15T05:23:46.540Z,99222.16
2023-01-15T05:26:33.295Z,99214.31
2023-01-15T05:29:18.717Z,99216.47
2023-01-15T05:32:04.409Z,99218.69
2023-01-15T05:34:49.755Z,99222.41
2023-01-15T05:37:35.281Z,99214.31
2023-01-15T05:40:21.056Z,99219.56
2023-01-15T05:43:06.567Z,99226.00
2023-01-15T05:45:52.143Z,99224.41
2023-01-15T05:48:37.370Z,99219.97
2023-01-15T05:51:22.923Z,99214.09
2023-01-15T05:54:11.377Z,99230.84
2023-01-15T05:56:57.149Z,99231.78
2023-01-15T05:59:42.441Z,99223.31
2023-01-15T06:02:27.813Z,99213.00
2023-01-15T06:05:14.224Z,99231.97
2023-01-15T06:08:01.198Z,99237.00
2023-01-15T06:10:48.420Z,99233.59
2023-01-15T06:13:34.513Z,99236.25
2023-01-15T06:16:20.862Z,99242.47
2023-01-15T06:19:07.236Z,99253.69
2023-01-15T06:21:52.658Z,99251.03
2023-01-15T06:24:38.272Z,99256.69
2023-01-15T06:27:23.645Z,99259.72
2023-01-15T06:30:09.638Z,99233.72
2023-01-15T06:32:55.034Z,99259.59
2023-01-15T06:35:40.625Z,99253.25
2023-01-15T06:38:26.361Z,99241.16
2023-01-15T06:41:36.010Z,99247.50
2023-01-15T06:44:39.958Z,99246.44
2023-01-15T06:47:25.518Z,99237.25
2023-01-15T06:50:11.126Z,99229.94
2023-01-15T06:52:56.378Z,99231.97
2023-01-15T06:55:41.678Z,99224.75
2023-01-15T06:58:27.285Z,99228.53
2023-01-15T07:01:15.241Z,99249.56
2023-01-15T07:04:00.676Z,99250.19
2023-01-15T07:06:46.105Z,99233.06
2023-01-15T07:09:31.664Z,99251.84
2023-01-15T07:12:19.406Z,99245.56
2023-01-15T07:15:05.192Z,99248.81
2023-01-15T07:17:54.717Z,99234.28
2023-01-15T07:20:40.155Z,99242.84
2023-01-15T07:23:27.208Z,99245.66
2023-01-15T07:26:12.888Z,99242.28
2023-01-15T07:28:58.218Z,99236.72
2023-01-15T07:31:43.493Z,99240.31
2023-01-15T07:34:29.091Z,99233.38
2023-01-15T07:37:14.774Z,99256.13
2023-01-15T07:40:00.258Z,99244.75
2023-01-15T07:43:03.701Z,99237.94
2023-01-15T07:46:08.145Z,99242.28
2023-01-15T07:49:12.174Z,99262.81
2023-01-15T07:51:58.078Z,99251.34
2023-01-15T07:54:45.081Z,99270.53
2023-01-15T07:57:30.846Z,99256.91
2023-01-15T08:00:21.386Z,99266.63
2023-01-15T08:03:07.091Z,99260.91
2023-01-15T08:05:52.677Z,99256.47
2023-01-15T08:08:38.205Z,99255.38
2023-01-15T08:11:42.169Z,99263.00
2023-01-15T08:14:46.214Z,99258.63
2023-01-15T08:17:35.741Z,99252.25
2023-01-15T08:20:24.497Z,99265.78
2023-01-15T08:23:10.638Z,99256.28
2023-01-15T08:25:59.953Z,99252.78
2023-01-15T08:28:45.256Z,99270.91
2023-01-15T08:31:30.937Z,99262.03
2023-01-15T08:34:16.838Z,99252.25
2023-01-15T08:37:02.263Z,99267.88
2023-01-15T08:39:47.504Z,99276.78
2023-01-15T08:42:33.104Z,99270.16
2023-01-15T08:45:18.578Z,99247.84
2023-01-15T08:48:04.395Z,99261.72
2023-01-15T08:50:50.541Z,99273.88
2023-01-15T08:53:36.907Z,99266.47
2023-01-15T08:56:22.327Z,99263.94
2023-01-15T08:59:08.185Z,99250.44
2023-01-15T09:01:54.289Z,99268.16
2023-01-15T09:04:39.817Z,99285.28
2023-01-15T09:07:25.330Z,99265.41
2023-01-15T09:10:10.842Z,99259.25
2023-01-15T09:13:00.311Z,99266.59
2023-01-15T09:15:45.615Z,99259.53
2023-01-15T09:18:31.326Z,99264.13
2023-01-15T09:21:16.603Z,99271.13
2023-01-15T09:24:02.800Z,99266.91
2023-01-15T09:26:48.745Z,99251.50
2023-01-15T09:29:36.074Z,99252.91
2023-01-15T09:32:21.967Z,99260.06
2023-01-15T09:35:07.856Z,99268.84
2023-01-15T09:37:53.446Z,99271.09
2023-01-15T09:40:50.704Z,99259.13
2023-01-15T09:44:11.393Z,99237.13
2023-01-15T09:47:11.868Z,99242.31
2023-01-15T09:50:18.120Z,99291.69
2023-01-15T09:53:27.950Z,99346.88
2023-01-15T09:56:25.957Z,99286.97
2023-01-15T09:59:25.701Z,99281.56
2023-01-15T10:02:37.633Z,99252.66
2023-01-15T10:05:32.977Z,99277.78
2023-01-15T10:08:25.973Z,99264.47
2023-01-15T10:11:21.973Z,99264.31
2023-01-15T10:14:13.635Z,99265.41
2023-01-15T10:16:59.100Z,99251.97
2023-01-15T10:19:45.170Z,99250.31
2023-01-15T10:22:42.894Z,99246.63
2023-01-15T10:25:39.944Z,99255.44
2023-01-15T10:28:29.629Z,99248.25
2023-01-15T10:31:21.133Z,99254.06
2023-01-15T10:34:24.757Z,99254.16
2023-01-15T10:37:17.035Z,99250.16
2023-01-15T10:40:30.542Z,99252.31
2023-01-15T10:43:50.885Z,99258.09
2023-01-15T10:46:40.355Z,99254.78
2023-01-15T10:49:29.910Z,99251.00
2023-01-15T10:52:31.673Z,99247.75
2023-01-15T10:55:32.841Z,99233.53
2023-01-15T10:58:41.240Z,99223.03
2023-01-15T11:01:27.762Z,99226.53
2023-01-15T11:04:13.831Z,99218.97
2023-01-15T11:07:01.033Z,99218.25
2023-01-15T11:09:47.337Z,99203.41
2023-01-15T11:12:51.337Z,99234.97
2023-01-15T11:15:56.214Z,99222.16
2023-01-15T11:19:03.506Z,99247.94
2023-01-15T11:21:51.117Z,99249.09
2023-01-15T11:24:38.407Z,99248.69
2023-01-15T11:27:30.253Z,99260.78
2023-01-15T11:30:33.768Z,99232.38
2023-01-15T11:33:28.054Z,99225.94
2023-01-15T11:36:23.585Z,99229.19
2023-01-15T11:39:27.672Z,99218.97
2023-01-15T11:42:35.272Z,99199.75
2023-01-15T11:45:41.856Z,99195.72
2023-01-15T11:48:45.986Z,99180.72
2023-01-15T11:51:41.272Z,99208.19
2023-01-15T11:54:27.282Z,99211.34
2023-01-15T11:57:27.774Z,99220.94
2023-01-15T12:00:28.764Z,99197.19
2023-01-15T12:03:22.489Z,99181.53
2023-01-15T12:06:13.178Z,99183.19
2023-01-15T12:09:31.385Z,99186.16
2023-01-15T12:12:35.849Z,99175.09
2023-01-15T12:15:39.308Z,99182.63
2023-01-15T12:18:43.575Z,99208.97
2023-01-15T12:21:51.999Z,99175.16
2023-01-15T12:25:20.194Z,99169.88
2023-01-15T12:28:24.376Z,99191.88
2023-01-15T12:31:22.185Z,99187.63
2023-01-15T12:34:19.153Z,99176.56
2023-01-15T12:37:06.795Z,99174.72
2023-01-15T12:39:55.391Z,99168.19
2023-01-15T12:43:06.775Z,99173.91
2023-01-15T12:45:57.201Z,99160.78
2023-01-15T12:48:54.535Z,99169.81
2023-01-15T12:51:45.540Z,99156.78
2023-01-15T12:54:38.765Z,99141.41
2023-01-15T12:57:43.687Z,99158.56
2023-01-15T13:00:36.941Z,99160.56
2023-01-15T13:03:32.054Z,99157.53
2023-01-15T13:06:19.417Z,99183.44
2023-01-15T13:09:19.683Z,99164.53
2023-01-15T13:12:13.302Z,99163.94
2023-01-15T13:14:59.046Z,99158.19
2023-01-15T13:18:14.564Z,99156.22
2023-01-15T13:21:07.003Z,99174.59
2023-01-15T13:24:13.001Z,99177.00
2023-01-15T13:27:20.953Z,99180.72
2023-01-15T13:30:18.040Z,99164.13
2023-01-15T13:33:29.778Z,99172.38
2023-01-15T13:36:25.142Z,99157.50
2023-01-15T13:39:22.835Z,99156.31
2023-01-15T13:42:34.152Z,99152.00
2023-01-15T13:45:19.438Z,99173.94
2023-01-15T13:48:15.907Z,99143.00
2023-01-15T13:51:04.627Z,99133.19
2023-01-15T13:53:50.482Z,99169.03
2023-01-15T13:56:37.113Z,99119.84
2023-01-15T13:59:41.126Z,99156.38
2023-01-15T14:02:30.314Z,99171.72
2023-01-15T14:05:32.565Z,99150.56
2023-01-15T14:08:36.084Z,99156.28
2023-01-15T14:11:47.887Z,99175.94
2023-01-15T14:14:59.423Z,99181.41
2023-01-15T14:18:08.699Z,99182.31
2023-01-15T14:20:54.318Z,99178.34
2023-01-15T14:23:53.232Z,99172.38
2023-01-15T14:26:58.799Z,99173.50
2023-01-15T14:30:06.842Z,99175.72
2023-01-15T14:33:07.209Z,99184.31
2023-01-15T14:35:52.924Z,99178.34
2023-01-15T14:38:51.988Z,99175.25
2023-01-15T14:41:56.102Z,99178.53
2023-01-15T14:44:44.713Z,99177.50
2023-01-15T14:47:36.995Z,99214.56
2023-01-15T14:50:33.844Z,99181.03
2023-01-15T14:53:30.758Z,99165.19
2023-01-15T14:56:28.359Z,99181.41
2023-01-15T14:59:28.127Z,99172.19
2023-01-15T15:02:21.245Z,99199.94
2023-01-15T15:05:15.851Z,99185.69
2023-01-15T15:08:02.977Z,99182.06
2023-01-15T15:10:54.721Z,99184.00
2023-01-15T15:13:46.536Z,99182.72
2023-01-15T15:16:47.855Z,99185.03
2023-01-15T15:19:39.838Z,99194.81
2023-01-15T15:22:31.948Z,99194.16
2023-01-15T15:25:23.342Z,99197.13
2023-01-15T15:28:11.042Z,99200.94
2023-01-15T15:31:01.286Z,99203.94
2023-01-15T15:33:46.684Z,99220.72
2023-01-15T15:36:36.509Z,99231.00
2023-01-15T15:39:35.568Z,99220.31
2023-01-15T15:43:00.491Z,99222.91
2023-01-15T15:46:15.750Z,99213.31
2023-01-15T15:49:01.353Z,99208.66
2023-01-15T15:51:51.786Z,99206.03
2023-01-15T15:54:37.406Z,99230.16
2023-01-15T15:57:23.078Z,99223.28
2023-01-15T16:00:19.615Z,99212.75
2023-01-15T16:03:20.458Z,99220.97
2023-01-15T16:06:07.499Z,99219.22
2023-01-15T16:09:01.455Z,99221.59
2023-01-15T16:11:48.448Z,99227.94
2023-01-15T16:14:36.038Z,99217.47
2023-01-15T16:17:22.138Z,99229.66
2023-01-15T16:20:17.524Z,99225.13
2023-01-15T16:23:05.005Z,99211.50
2023-01-15T16:26:01.940Z,99245.94
2023-01-15T16:28:56.778Z,99244.44
2023-01-15T16:31:42.586Z,99232.97
2023-01-15T16:34:31.017Z,99263.19
2023-01-15T16:37:30.522Z,99264.78
2023-01-15T16:40:23.370Z,99242.56
2023-01-15T16:43:31.115Z,99240.22
2023-01-15T16:46:19.399Z,99247.75
2023-01-15T16:49:32.140Z,99233.03
2023-01-15T16:52:36.225Z,99262.69
2023-01-15T16:55:33.704Z,99265.28
2023-01-15T16:58:21.462Z,99267.03
2023-01-15T17:01:42.276Z,99285.19
2023-01-15T17:04:36.574Z,99282.56
2023-01-15T17:07:38.807Z,99243.63
2023-01-15T17:10:28.235Z,99280.69
2023-01-15T17:13:19.699Z,99282.19
2023-01-15T17:16:16.028Z,99311.41
2023-01-15T17:19:05.695Z,99290.00
2023-01-15T17:21:51.529Z,99289.81
2023-01-15T17:24:37.308Z,99279.59
2023-01-15T17:27:24.095Z,99301.19
2023-01-15T17:30:12.539Z,99289.34
2023-01-15T17:32:59.186Z,99317.66
2023-01-15T17:35:48.353Z,99298.34
2023-01-15T17:38:33.763Z,99303.88
2023-01-15T17:41:20.628Z,99311.94
2023-01-15T17:44:06.765Z,99309.84
2023-01-15T17:46:52.402Z,99318.84
2023-01-15T17:49:37.857Z,99321.34
2023-01-15T17:52:23.259Z,99333.03
2023-01-15T17:55:30.668Z,99339.81
2023-01-15T17:58:35.744Z,99329.41
2023-01-15T18:01:42.912Z,99340.56
2023-01-15T18:05:07.234Z,99334.19
2023-01-15T18:07:56.546Z,99318.16
2023-01-15T18:10:41.682Z,99367.47
2023-01-15T18:13:27.260Z,99364.88
2023-01-15T18:16:12.794Z,99391.25
2023-01-15T18:18:58.456Z,99386.56
2023-01-15T18:21:43.699Z,99399.16
2023-01-15T18:24:29.321Z,99410.25
2023-01-15T18:27:14.938Z,99422.44
2023-01-15T18:30:00.624Z,99425.03
2023-01-15T18:32:46.590Z,99450.06
2023-01-15T18:35:32.323Z,99422.56
2023-01-15T18:38:17.722Z,99429.66
2023-01-15T18:41:33.839Z,99449.28
2023-01-15T18:44:40.757Z,99461.19
2023-01-15T18:47:26.514Z,99456.34
2023-01-15T18:50:11.797Z,99464.38
2023-01-15T18:52:57.843Z,99468.03
2023-01-15T18:55:43.823Z,99468.78
2023-01-15T18:58:29.503Z,99455.03
2023-01-15T19:01:15.794Z,99479.19
2023-01-15T19:04:01.184Z,99484.22
2023-01-15T19:06:47.508Z,99474.28
2023-01-15T19:09:33.069Z,99477.72
2023-01-15T19:12:19.672Z,99488.94
2023-01-15T19:15:25.674Z,99487.59
2023-01-15T19:18:29.957Z,99479.47
2023-01-15T19:21:17.737Z,99475.13
2023-01-15T19:24:03.224Z,99472.53
2023-01-15T19:26:48.597Z,99490.06
2023-01-15T19:29:34.092Z,99473.59
2023-01-15T19:32:19.411Z,99477.94
2023-01-15T19:35:05.260Z,99490.78
2023-01-15T19:37:50.854Z,99491.75
2023-01-15T19:40:40.272Z,99496.28
2023-01-15T19:43:44.250Z,99497.06
2023-01-15T19:46:48.671Z,99488.44
2023-01-15T19:49:56.044Z,99507.03
2023-01-15T19:52:41.709Z,99516.44
2023-01-15T19:55:29.504Z,99499.72
2023-01-15T19:58:15.701Z,99503.75
2023-01-15T20:01:01.646Z,99508.72
2023-01-15T20:03:47.107Z,99516.00
2023-01-15T20:06:32.502Z,99506.81
2023-01-15T20:09:18.202Z,99510.38
2023-01-15T20:12:22.436Z,99504.34
2023-01-15T20:15:09.293Z,99510.03
2023-01-15T20:17:55.652Z,99513.47
2023-01-15T20:20:41.021Z,99530.56
2023-01-15T20:23:26.571Z,99524.13
2023-01-15T20:26:14.638Z,99520.34
2023-01-15T20:28:59.792Z,99516.97
2023-01-15T20:31:45.087Z,99524.75
2023-01-15T20:34:32.045Z,99512.75
2023-01-15T20:37:17.760Z,99499.72
2023-01-15T20:40:03.398Z,99514.31
2023-01-15T20:43:07.401Z,99511.25
2023-01-15T20:45:52.886Z,99501.06
2023-01-15T20:48:56.660Z,99510.22
2023-01-15T20:51:42.183Z,99511.69
2023-01-15T20:54:27.768Z,99515.00
2023-01-15T20:57:13.377Z,99507.38
2023-01-15T20:59:58.862Z,99517.47
2023-01-15T21:02:44.494Z,99525.00
2023-01-15T21:05:31.049Z,99515.78
2023-01-15T21:08:16.498Z,99529.59
2023-01-15T21:11:02.073Z,99522.25
2023-01-15T21:13:47.380Z,99510.38
2023-01-15T21:16:32.784Z,99524.56
2023-01-15T21:19:18.210Z,99526.09
2023-01-15T21:22:03.575Z,99522.75
2023-01-15T21:24:51.392Z,99525.16
2023-01-15T21:27:37.681Z,99529.47
2023-01-15T21:30:25.591Z,99535.44
2023-01-15T21:33:11.631Z,99522.72
2023-01-15T21:35:57.172Z,99521.31
2023-01-15T21:38:42.826Z,99510.34
2023-01-15T21:41:46.815Z,99526.13
2023-01-15T21:44:35.415Z,99522.94
2023-01-15T21:47:20.855Z,99519.41
2023-01-15T21:50:06.636Z,99514.38
2023-01-15T21:52:52.091Z,99513.38
2023-01-15T21:55:37.808Z,99521.94
2023-01-15T21:58:23.204Z,99515.34
2023-01-15T22:01:10.795Z,99527.41
2023-01-15T22:03:56.476Z,99515.28
2023-01-15T22:06:41.864Z,99516.25
2023-01-15T22:09:27.409Z,99525.59
2023-01-15T22:12:13.384Z,99518.13
2023-01-15T22:14:58.741Z,99514.84
2023-01-15T22:17:44.186Z,99506.19
2023-01-15T22:20:29.779Z,99488.94
2023-01-15T22:23:15.094Z,99499.97
2023-01-15T22:26:01.021Z,99506.34
2023-01-15T22:28:47.573Z,99500.88
2023-01-15T22:31:32.820Z,99495.47
2023-01-15T22:34:21.321Z,99508.44
2023-01-15T22:37:07.109Z,99507.00
2023-01-15T22:39:52.499Z,99498.78
2023-01-15T22:42:37.948Z,99498.56
2023-01-15T22:45:24.550Z,99493.50
2023-01-15T22:48:11.089Z,99496.72
2023-01-15T22:50:57.423Z,99491.00
2023-01-15T22:53:42.967Z,99489.63
2023-01-15T22:56:29.121Z,99498.75
2023-01-15T22:59:15.931Z,99503.69
2023-01-15T23:02:01.770Z,99509.44
2023-01-15T23:04:48.092Z,99502.28
2023-01-15T23:07:35.561Z,99493.56
2023-01-15T23:10:21.083Z,99493.97
2023-01-15T23:13:06.426Z,99497.78
2023-01-15T23:15:59.605Z,99491.47
2023-01-15T23:18:46.013Z,99480.50
2023-01-15T23:21:31.775Z,99480.94
2023-01-15T23:24:17.816Z,99469.81
2023-01-15T23:27:03.265Z,99479.88
2023-01-15T23:29:48.534Z,99471.84
2023-01-15T23:32:34.167Z,99468.19
2023-01-15T23:35:20.017Z,99462.09
2023-01-15T23:38:05.682Z,99463.31
2023-01-15T23:40:51.566Z,99468.44
2023-01-15T23:43:56.287Z,99472.09
2023-01-15T23:46:41.947Z,99462.16
2023-01-15T23:49:27.228Z,99476.09
2023-01-15T23:52:12.640Z,99468.63
2023-01-15T23:54:58.159Z,99470.09
2023-01-15T23:57:43.388Z,99466.88
